sensor_id;sensor_type;location;lat;lon;timestamp;pressure;altitude;pressure_sealevel;temperature;humidity
49813;BME280;35706;52.100;5.056;2023-05-07T00:00:57;101564.28;;;16.61;90.45
49813;BME280;35706;52.100;5.056;2023-05-07T00:01:59;101561.69;;;16.69;90.10
49813;BME280;35706;52.100;5.056;2023-05-07T00:03:00;101562.34;;;16.72;89.90
49813;BME280;35706;52.100;5.056;2023-05-07T00:04:01;101556.66;;;16.58;90.62
49813;BME280;35706;52.100;5.056;2023-05-07T00:05:02;101563.75;;;16.49;91.39
49813;BME280;35706;52.100;5.056;2023-05-07T00:06:03;101563.31;;;16.62;89.98
49813;BME280;35706;52.100;5.056;2023-05-07T00:07:03;101557.91;;;16.72;89.01
49813;BME280;35706;52.100;5.056;2023-05-07T00:08:04;101557.84;;;16.64;90.00
49813;BME280;35706;52.100;5.056;2023-05-07T00:09:04;101555.84;;;16.58;90.38
49813;BME280;35706;52.100;5.056;2023-05-07T00:10:06;101555.19;;;16.64;90.19
49813;BME280;35706;52.100;5.056;2023-05-07T00:11:06;101554.97;;;16.57;90.63
49813;BME280;35706;52.100;5.056;2023-05-07T00:12:07;101556.31;;;16.53;91.17
49813;BME280;35706;52.100;5.056;2023-05-07T00:13:07;101552.81;;;16.53;90.82
49813;BME280;35706;52.100;5.056;2023-05-07T00:14:07;101548.84;;;16.57;90.66
49813;BME280;35706;52.100;5.056;2023-05-07T00:15:08;101553.31;;;16.56;90.15
49813;BME280;35706;52.100;5.056;2023-05-07T00:16:08;101561.44;;;16.55;90.60
49813;BME280;35706;52.100;5.056;2023-05-07T00:17:09;101558.47;;;16.58;89.99
49813;BME280;35706;52.100;5.056;2023-05-07T00:18:09;101552.06;;;16.68;88.82
49813;BME280;35706;52.100;5.056;2023-05-07T00:19:09;101557.81;;;16.56;89.62
49813;BME280;35706;52.100;5.056;2023-05-07T00:20:10;101558.53;;;16.40;90.86
49813;BME280;35706;52.100;5.056;2023-05-07T00:21:11;101563.75;;;16.49;90.50
49813;BME280;35706;52.100;5.056;2023-05-07T00:22:11;101562.31;;;16.63;89.53
49813;BME280;35706;52.100;5.056;2023-05-07T00:23:12;101556.31;;;16.53;90.05
49813;BME280;35706;52.100;5.056;2023-05-07T00:24:12;101559.78;;;16.54;90.16
49813;BME280;35706;52.100;5.056;2023-05-07T00:25:12;101559.59;;;16.47;90.37
49813;BME280;35706;52.100;5.056;2023-05-07T00:26:13;101552.66;;;16.54;90.17
49813;BME280;35706;52.100;5.056;2023-05-07T00:27:13;101550.53;;;16.58;89.83
49813;BME280;35706;52.100;5.056;2023-05-07T00:28:13;101554.66;;;16.60;89.33
49813;BME280;35706;52.100;5.056;2023-05-07T00:29:14;101559.34;;;16.66;89.64
49813;BME280;35706;52.100;5.056;2023-05-07T00:30:14;101555.38;;;16.71;89.57
49813;BME280;35706;52.100;5.056;2023-05-07T00:31:14;101552.84;;;16.61;90.03
49813;BME280;35706;52.100;5.056;2023-05-07T00:32:15;101555.50;;;16.61;90.01
49813;BME280;35706;52.100;5.056;2023-05-07T00:33:15;101564.28;;;16.53;90.82
49813;BME280;35706;52.100;5.056;2023-05-07T00:34:16;101563.75;;;16.49;91.00
49813;BME280;35706;52.100;5.056;2023-05-07T00:35:16;101561.38;;;16.46;91.30
49813;BME280;35706;52.100;5.056;2023-05-07T00:36:16;101559.66;;;16.63;90.11
49813;BME280;35706;52.100;5.056;2023-05-07T00:37:16;101555.50;;;16.61;90.20
49813;BME280;35706;52.100;5.056;2023-05-07T00:38:17;101563.16;;;16.38;91.49
49813;BME280;35706;52.100;5.056;2023-05-07T00:39:17;101560.47;;;16.56;90.68
49813;BME280;35706;52.100;5.056;2023-05-07T00:40:17;101549.38;;;16.60;89.82
49813;BME280;35706;52.100;5.056;2023-05-07T00:41:18;101553.94;;;16.50;90.69
49813;BME280;35706;52.100;5.056;2023-05-07T00:42:18;101557.19;;;16.36;91.64
49813;BME280;35706;52.100;5.056;2023-05-07T00:43:18;101558.44;;;16.49;91.54
49813;BME280;35706;52.100;5.056;2023-05-07T00:44:19;101547.00;;;16.57;90.52
49813;BME280;35706;52.100;5.056;2023-05-07T00:45:19;101554.34;;;16.55;90.55
49813;BME280;35706;52.100;5.056;2023-05-07T00:46:22;101549.16;;;16.54;90.68
49813;BME280;35706;52.100;5.056;2023-05-07T00:47:23;101554.53;;;16.36;91.82
49813;BME280;35706;52.100;5.056;2023-05-07T00:48:25;101549.91;;;16.38;92.14
49813;BME280;35706;52.100;5.056;2023-05-07T00:49:34;101559.09;;;16.25;92.40
49813;BME280;35706;52.100;5.056;2023-05-07T00:50:36;101556.75;;;16.40;91.57
49813;BME280;35706;52.100;5.056;2023-05-07T00:51:36;101553.03;;;16.33;92.26
49813;BME280;35706;52.100;5.056;2023-05-07T00:52:37;101542.81;;;16.46;90.69
49813;BME280;35706;52.100;5.056;2023-05-07T00:53:37;101551.69;;;16.55;90.82
49813;BME280;35706;52.100;5.056;2023-05-07T00:54:38;101549.66;;;16.49;90.91
49813;BME280;35706;52.100;5.056;2023-05-07T00:55:40;101553.22;;;16.40;91.70
49813;BME280;35706;52.100;5.056;2023-05-07T00:56:40;101546.28;;;16.39;91.79
49813;BME280;35706;52.100;5.056;2023-05-07T00:57:41;101550.66;;;16.22;92.89
49813;BME280;35706;52.100;5.056;2023-05-07T00:58:41;101553.19;;;16.32;91.95
49813;BME280;35706;52.100;5.056;2023-05-07T00:59:42;101547.88;;;16.32;92.06
49813;BME280;35706;52.100;5.056;2023-05-07T01:00:42;101555.47;;;16.26;92.16
49813;BME280;35706;52.100;5.056;2023-05-07T01:01:42;101555.69;;;16.33;91.41
49813;BME280;35706;52.100;5.056;2023-05-07T01:02:43;101547.09;;;16.39;91.15
49813;BME280;35706;52.100;5.056;2023-05-07T01:03:43;101556.56;;;16.42;91.08
49813;BME280;35706;52.100;5.056;2023-05-07T01:04:44;101555.81;;;16.32;92.46
49813;BME280;35706;52.100;5.056;2023-05-07T01:05:45;101560.22;;;16.41;91.73
49813;BME280;35706;52.100;5.056;2023-05-07T01:06:47;101557.28;;;16.52;90.46
49813;BME280;35706;52.100;5.056;2023-05-07T01:07:48;101562.25;;;16.47;90.77
49813;BME280;35706;52.100;5.056;2023-05-07T01:08:50;101559.06;;;16.43;90.70
49813;BME280;35706;52.100;5.056;2023-05-07T01:09:53;101558.28;;;16.51;90.34
49813;BME280;35706;52.100;5.056;2023-05-07T01:10:54;101557.91;;;16.46;90.38
49813;BME280;35706;52.100;5.056;2023-05-07T01:11:56;101557.56;;;16.41;90.95
49813;BME280;35706;52.100;5.056;2023-05-07T01:12:58;101560.44;;;16.29;92.10
49813;BME280;35706;52.100;5.056;2023-05-07T01:13:59;101564.59;;;16.24;92.65
49813;BME280;35706;52.100;5.056;2023-05-07T01:15:00;101564.66;;;16.32;92.26
49813;BME280;35706;52.100;5.056;2023-05-07T01:16:02;101558.66;;;16.30;92.06
49813;BME280;35706;52.100;5.056;2023-05-07T01:17:02;101562.75;;;16.24;92.57
49813;BME280;35706;52.100;5.056;2023-05-07T01:18:03;101557.41;;;16.16;93.12
49813;BME280;35706;52.100;5.056;2023-05-07T01:19:03;101553.59;;;16.19;93.24
49813;BME280;35706;52.100;5.056;2023-05-07T01:20:05;101554.59;;;16.18;93.36
49813;BME280;35706;52.100;5.056;2023-05-07T01:21:06;101543.25;;;16.34;91.68
49813;BME280;35706;52.100;5.056;2023-05-07T01:22:09;101545.53;;;16.28;92.79
49813;BME280;35706;52.100;5.056;2023-05-07T01:23:11;101553.34;;;16.30;92.33
49813;BME280;35706;52.100;5.056;2023-05-07T01:24:12;101549.75;;;16.13;93.71
49813;BME280;35706;52.100;5.056;2023-05-07T01:25:12;101547.47;;;16.18;93.20
49813;BME280;35706;52.100;5.056;2023-05-07T01:26:13;101547.19;;;16.29;92.43
49813;BME280;35706;52.100;5.056;2023-05-07T01:27:13;101542.41;;;16.33;91.90
49813;BME280;35706;52.100;5.056;2023-05-07T01:28:14;101539.66;;;16.43;91.76
49813;BME280;35706;52.100;5.056;2023-05-07T01:29:14;101541.59;;;16.33;92.60
49813;BME280;35706;52.100;5.056;2023-05-07T01:30:16;101540.53;;;16.25;92.94
49813;BME280;35706;52.100;5.056;2023-05-07T01:31:17;101538.28;;;16.13;94.17
49813;BME280;35706;52.100;5.056;2023-05-07T01:32:23;101546.03;;;16.06;94.57
49813;BME280;35706;52.100;5.056;2023-05-07T01:33:25;101539.78;;;16.07;94.84
49813;BME280;35706;52.100;5.056;2023-05-07T01:34:31;101541.41;;;16.08;94.58
49813;BME280;35706;52.100;5.056;2023-05-07T01:35:37;101547.31;;;16.20;93.56
49813;BME280;35706;52.100;5.056;2023-05-07T01:36:38;101542.16;;;16.18;93.33
49813;BME280;35706;52.100;5.056;2023-05-07T01:37:41;101542.09;;;16.10;93.76
49813;BME280;35706;52.100;5.056;2023-05-07T01:38:41;101538.09;;;16.06;93.88
49813;BME280;35706;52.100;5.056;2023-05-07T01:39:44;101536.78;;;16.10;93.71
49813;BME280;35706;52.100;5.056;2023-05-07T01:40:44;101534.88;;;16.20;93.03
49813;BME280;35706;52.100;5.056;2023-05-07T01:41:46;101530.56;;;16.19;93.65
49813;BME280;35706;52.100;5.056;2023-05-07T01:42:47;101534.59;;;16.23;93.00
49813;BME280;35706;52.100;5.056;2023-05-07T01:43:49;101531.75;;;16.25;92.31
49813;BME280;35706;52.100;5.056;2023-05-07T01:44:50;101530.53;;;16.11;93.33
49813;BME280;35706;52.100;5.056;2023-05-07T01:45:51;101527.28;;;16.25;92.34
49813;BME280;35706;52.100;5.056;2023-05-07T01:46:53;101526.97;;;16.28;92.09
49813;BME280;35706;52.100;5.056;2023-05-07T01:47:54;101535.66;;;16.39;91.23
49813;BME280;35706;52.100;5.056;2023-05-07T01:48:55;101537.06;;;16.25;91.52
49813;BME280;35706;52.100;5.056;2023-05-07T01:49:55;101527.59;;;16.22;92.22
49813;BME280;35706;52.100;5.056;2023-05-07T01:50:56;101535.88;;;16.19;92.38
49813;BME280;35706;52.100;5.056;2023-05-07T01:51:57;101525.94;;;16.21;91.96
49813;BME280;35706;52.100;5.056;2023-05-07T01:52:58;101529.50;;;16.12;92.48
49813;BME280;35706;52.100;5.056;2023-05-07T01:53:58;101532.16;;;16.12;92.03
49813;BME280;35706;52.100;5.056;2023-05-07T01:54:58;101531.81;;;16.07;92.57
49813;BME280;35706;52.100;5.056;2023-05-07T01:55:59;101528.63;;;16.03;92.67
49813;BME280;35706;52.100;5.056;2023-05-07T01:56:59;101533.94;;;16.03;92.61
49813;BME280;35706;52.100;5.056;2023-05-07T01:58:00;101535.81;;;16.11;92.24
49813;BME280;35706;52.100;5.056;2023-05-07T01:59:00;101535.34;;;16.16;91.29
49813;BME280;35706;52.100;5.056;2023-05-07T02:00:02;101526.34;;;16.08;91.72
49813;BME280;35706;52.100;5.056;2023-05-07T02:01:05;101533.66;;;16.15;91.41
49813;BME280;35706;52.100;5.056;2023-05-07T02:02:05;101528.22;;;16.16;91.35
49813;BME280;35706;52.100;5.056;2023-05-07T02:03:05;101532.31;;;16.11;91.47
49813;BME280;35706;52.100;5.056;2023-05-07T02:04:06;101528.38;;;16.15;91.25
49813;BME280;35706;52.100;5.056;2023-05-07T02:05:06;101525.56;;;16.16;91.43
49813;BME280;35706;52.100;5.056;2023-05-07T02:06:07;101523.91;;;16.15;91.00
49813;BME280;35706;52.100;5.056;2023-05-07T02:07:07;101526.91;;;16.20;90.66
49813;BME280;35706;52.100;5.056;2023-05-07T02:08:07;101524.06;;;16.14;90.55
49813;BME280;35706;52.100;5.056;2023-05-07T02:09:08;101527.06;;;16.19;90.59
49813;BME280;35706;52.100;5.056;2023-05-07T02:10:09;101529.91;;;16.17;90.93
49813;BME280;35706;52.100;5.056;2023-05-07T02:11:09;101524.59;;;16.17;90.94
49813;BME280;35706;52.100;5.056;2023-05-07T02:12:10;101517.66;;;16.24;89.60
49813;BME280;35706;52.100;5.056;2023-05-07T02:13:10;101518.63;;;16.15;90.39
49813;BME280;35706;52.100;5.056;2023-05-07T02:14:11;101524.41;;;16.19;90.17
49813;BME280;35706;52.100;5.056;2023-05-07T02:15:11;101524.94;;;16.22;89.79
49813;BME280;35706;52.100;5.056;2023-05-07T02:16:11;101522.81;;;16.26;89.60
49813;BME280;35706;52.100;5.056;2023-05-07T02:17:14;101527.94;;;16.27;89.83
49813;BME280;35706;52.100;5.056;2023-05-07T02:18:15;101526.50;;;16.33;89.23
49813;BME280;35706;52.100;5.056;2023-05-07T02:19:16;101516.38;;;16.28;89.36
49813;BME280;35706;52.100;5.056;2023-05-07T02:20:16;101517.34;;;16.27;89.47
49813;BME280;35706;52.100;5.056;2023-05-07T02:21:16;101521.81;;;16.27;89.71
49813;BME280;35706;52.100;5.056;2023-05-07T02:22:17;101525.28;;;16.27;89.88
49813;BME280;35706;52.100;5.056;2023-05-07T02:23:18;101529.28;;;16.23;90.39
49813;BME280;35706;52.100;5.056;2023-05-07T02:24:18;101525.94;;;16.21;90.54
49813;BME280;35706;52.100;5.056;2023-05-07T02:25:18;101527.94;;;16.27;90.20
49813;BME280;35706;52.100;5.056;2023-05-07T02:26:18;101527.53;;;16.14;91.05
49813;BME280;35706;52.100;5.056;2023-05-07T02:27:19;101527.94;;;16.19;90.63
49813;BME280;35706;52.100;5.056;2023-05-07T02:28:19;101527.59;;;16.22;90.52
49813;BME280;35706;52.100;5.056;2023-05-07T02:29:20;101530.56;;;16.19;91.04
49813;BME280;35706;52.100;5.056;2023-05-07T02:30:20;101531.25;;;16.21;90.71
49813;BME280;35706;52.100;5.056;2023-05-07T02:31:21;101529.56;;;16.20;90.70
49813;BME280;35706;52.100;5.056;2023-05-07T02:32:21;101530.09;;;16.24;90.43
49813;BME280;35706;52.100;5.056;2023-05-07T02:33:23;101535.56;;;16.22;90.58
49813;BME280;35706;52.100;5.056;2023-05-07T02:34:23;101529.84;;;16.09;91.63
49813;BME280;35706;52.100;5.056;2023-05-07T02:35:25;101524.63;;;15.99;92.60
49813;BME280;35706;52.100;5.056;2023-05-07T02:36:25;101530.75;;;16.00;92.25
49813;BME280;35706;52.100;5.056;2023-05-07T02:37:26;101533.78;;;16.05;91.83
49813;BME280;35706;52.100;5.056;2023-05-07T02:38:26;101534.97;;;16.11;91.67
49813;BME280;35706;52.100;5.056;2023-05-07T02:39:27;101529.38;;;16.14;91.01
49813;BME280;35706;52.100;5.056;2023-05-07T02:40:27;101531.13;;;16.05;91.90
49813;BME280;35706;52.100;5.056;2023-05-07T02:41:28;101527.94;;;16.01;91.65
49813;BME280;35706;52.100;5.056;2023-05-07T02:42:28;101535.75;;;16.03;91.77
49813;BME280;35706;52.100;5.056;2023-05-07T02:43:28;101530.31;;;16.04;91.44
49813;BME280;35706;52.100;5.056;2023-05-07T02:44:29;101533.00;;;16.13;91.12
49813;BME280;35706;52.100;5.056;2023-05-07T02:45:32;101529.22;;;16.15;90.82
49813;BME280;35706;52.100;5.056;2023-05-07T02:46:33;101526.41;;;16.17;90.68
49813;BME280;35706;52.100;5.056;2023-05-07T02:47:33;101533.47;;;16.08;91.36
49813;BME280;35706;52.100;5.056;2023-05-07T02:48:33;101535.22;;;15.99;92.29
49813;BME280;35706;52.100;5.056;2023-05-07T02:49:34;101526.75;;;15.96;92.87
49813;BME280;35706;52.100;5.056;2023-05-07T02:50:34;101531.38;;;15.94;93.39
49813;BME280;35706;52.100;5.056;2023-05-07T02:51:35;101531.75;;;15.99;92.95
49813;BME280;35706;52.100;5.056;2023-05-07T02:52:35;101526.44;;;15.99;92.65
49813;BME280;35706;52.100;5.056;2023-05-07T02:53:35;101527.41;;;15.98;92.47
49813;BME280;35706;52.100;5.056;2023-05-07T02:54:36;101525.38;;;15.92;92.85
49813;BME280;35706;52.100;5.056;2023-05-07T02:55:36;101523.81;;;15.99;92.50
49813;BME280;35706;52.100;5.056;2023-05-07T02:56:36;101518.97;;;15.94;92.79
49813;BME280;35706;52.100;5.056;2023-05-07T02:57:36;101522.28;;;15.96;92.60
49813;BME280;35706;52.100;5.056;2023-05-07T02:58:37;101520.47;;;15.97;92.50
49813;BME280;35706;52.100;5.056;2023-05-07T02:59:39;101527.28;;;15.99;92.16
49813;BME280;35706;52.100;5.056;2023-05-07T03:00:39;101524.22;;;16.12;91.55
49813;BME280;35706;52.100;5.056;2023-05-07T03:01:40;101525.84;;;16.05;91.51
49813;BME280;35706;52.100;5.056;2023-05-07T03:02:42;101530.75;;;16.00;92.24
49813;BME280;35706;52.100;5.056;2023-05-07T03:03:42;101524.56;;;15.91;92.51
49813;BME280;35706;52.100;5.056;2023-05-07T03:04:42;101528.56;;;15.95;92.33
49813;BME280;35706;52.100;5.056;2023-05-07T03:05:42;101529.47;;;16.04;91.72
49813;BME280;35706;52.100;5.056;2023-05-07T03:06:43;101530.06;;;15.98;92.04
49813;BME280;35706;52.100;5.056;2023-05-07T03:07:43;101525.25;;;15.93;92.23
49813;BME280;35706;52.100;5.056;2023-05-07T03:08:46;101528.56;;;15.95;91.92
49813;BME280;35706;52.100;5.056;2023-05-07T03:09:46;101524.94;;;15.96;91.76
49813;BME280;35706;52.100;5.056;2023-05-07T03:10:47;101529.94;;;15.99;91.58
49813;BME280;35706;52.100;5.056;2023-05-07T03:11:47;101526.81;;;16.04;91.41
49813;BME280;35706;52.100;5.056;2023-05-07T03:12:47;101523.13;;;15.97;91.57
49813;BME280;35706;52.100;5.056;2023-05-07T03:13:47;101523.81;;;15.99;91.47
49813;BME280;35706;52.100;5.056;2023-05-07T03:14:49;101521.44;;;15.96;91.69
49813;BME280;35706;52.100;5.056;2023-05-07T03:15:49;101519.19;;;15.83;92.64
49813;BME280;35706;52.100;5.056;2023-05-07T03:16:50;101522.69;;;15.83;92.58
49813;BME280;35706;52.100;5.056;2023-05-07T03:17:50;101522.84;;;15.82;93.07
49813;BME280;35706;52.100;5.056;2023-05-07T03:18:50;101524.50;;;15.83;92.85
49813;BME280;35706;52.100;5.056;2023-05-07T03:19:51;101524.34;;;15.84;92.37
49813;BME280;35706;52.100;5.056;2023-05-07T03:20:51;101522.09;;;15.90;91.92
49813;BME280;35706;52.100;5.056;2023-05-07T03:21:51;101528.03;;;15.92;91.75
49813;BME280;35706;52.100;5.056;2023-05-07T03:22:52;101523.88;;;15.89;92.09
49813;BME280;35706;52.100;5.056;2023-05-07T03:23:52;101523.06;;;15.88;92.00
49813;BME280;35706;52.100;5.056;2023-05-07T03:24:53;101525.56;;;15.90;91.84
49813;BME280;35706;52.100;5.056;2023-05-07T03:25:53;101518.06;;;15.85;92.11
49813;BME280;35706;52.100;5.056;2023-05-07T03:26:53;101525.38;;;15.92;91.99
49813;BME280;35706;52.100;5.056;2023-05-07T03:27:54;101523.06;;;15.88;91.97
49813;BME280;35706;52.100;5.056;2023-05-07T03:28:54;101523.88;;;15.89;91.73
49813;BME280;35706;52.100;5.056;2023-05-07T03:29:55;101514.78;;;15.92;90.95
49813;BME280;35706;52.100;5.056;2023-05-07T03:30:55;101523.00;;;15.80;91.31
49813;BME280;35706;52.100;5.056;2023-05-07T03:31:56;101518.84;;;15.78;91.61
49813;BME280;35706;52.100;5.056;2023-05-07T03:32:56;101520.88;;;15.84;91.41
49813;BME280;35706;52.100;5.056;2023-05-07T03:33:57;101530.94;;;15.80;91.71
49813;BME280;35706;52.100;5.056;2023-05-07T03:34:57;101522.63;;;15.75;91.48
49813;BME280;35706;52.100;5.056;2023-05-07T03:35:58;101524.00;;;15.79;91.36
49813;BME280;35706;52.100;5.056;2023-05-07T03:36:58;101524.81;;;15.80;91.67
49813;BME280;35706;52.100;5.056;2023-05-07T03:37:58;101525.34;;;15.83;91.53
49813;BME280;35706;52.100;5.056;2023-05-07T03:38:58;101530.81;;;15.82;91.90
49813;BME280;35706;52.100;5.056;2023-05-07T03:39:59;101527.00;;;15.84;91.83
49813;BME280;35706;52.100;5.056;2023-05-07T03:40:59;101525.66;;;15.80;91.77
49813;BME280;35706;52.100;5.056;2023-05-07T03:42:00;101525.66;;;15.80;92.06
49813;BME280;35706;52.100;5.056;2023-05-07T03:43:01;101526.47;;;15.81;92.45
49813;BME280;35706;52.100;5.056;2023-05-07T03:44:01;101521.03;;;15.82;92.43
49813;BME280;35706;52.100;5.056;2023-05-07T03:45:01;101518.75;;;15.87;92.71
49813;BME280;35706;52.100;5.056;2023-05-07T03:46:02;101519.19;;;15.83;92.91
49813;BME280;35706;52.100;5.056;2023-05-07T03:47:02;101521.16;;;15.81;93.25
49813;BME280;35706;52.100;5.056;2023-05-07T03:48:03;101515.88;;;15.81;93.24
49813;BME280;35706;52.100;5.056;2023-05-07T03:49:03;101514.06;;;15.81;92.97
49813;BME280;35706;52.100;5.056;2023-05-07T03:50:04;101517.16;;;15.77;93.11
49813;BME280;35706;52.100;5.056;2023-05-07T03:51:05;101513.53;;;15.78;93.07
49813;BME280;35706;52.100;5.056;2023-05-07T03:52:06;101512.38;;;15.80;93.19
49813;BME280;35706;52.100;5.056;2023-05-07T03:53:06;101515.38;;;15.77;93.05
49813;BME280;35706;52.100;5.056;2023-05-07T03:54:07;101514.00;;;15.73;93.24
49813;BME280;35706;52.100;5.056;2023-05-07T03:55:08;101512.84;;;15.76;93.11
49813;BME280;35706;52.100;5.056;2023-05-07T03:56:08;101515.66;;;15.74;93.21
49813;BME280;35706;52.100;5.056;2023-05-07T03:57:08;101514.81;;;15.74;93.25
49813;BME280;35706;52.100;5.056;2023-05-07T03:58:08;101520.13;;;15.74;93.53
49813;BME280;35706;52.100;5.056;2023-05-07T03:59:09;101523.78;;;15.73;93.30
49813;BME280;35706;52.100;5.056;2023-05-07T04:00:09;101522.09;;;15.72;93.78
49813;BME280;35706;52.100;5.056;2023-05-07T04:01:10;101528.38;;;15.71;93.66
49813;BME280;35706;52.100;5.056;2023-05-07T04:02:11;101525.84;;;15.69;93.98
49813;BME280;35706;52.100;5.056;2023-05-07T04:03:11;101529.19;;;15.71;93.89
49813;BME280;35706;52.100;5.056;2023-05-07T04:04:12;101531.00;;;15.71;93.75
49813;BME280;35706;52.100;5.056;2023-05-07T04:05:13;101534.97;;;15.66;94.15
49813;BME280;35706;52.100;5.056;2023-05-07T04:06:17;101534.63;;;15.70;94.20
49813;BME280;35706;52.100;5.056;2023-05-07T04:07:18;101533.00;;;15.68;93.59
49813;BME280;35706;52.100;5.056;2023-05-07T04:08:18;101535.47;;;15.70;93.27
49813;BME280;35706;52.100;5.056;2023-05-07T04:09:18;101544.13;;;15.72;93.65
49813;BME280;35706;52.100;5.056;2023-05-07T04:10:19;101535.47;;;15.70;93.42
49813;BME280;35706;52.100;5.056;2023-05-07T04:11:19;101540.66;;;15.72;93.59
49813;BME280;35706;52.100;5.056;2023-05-07T04:12:20;101538.69;;;15.74;93.66
49813;BME280;35706;52.100;5.056;2023-05-07T04:13:24;101538.53;;;15.75;93.58
49813;BME280;35706;52.100;5.056;2023-05-07T04:14:25;101537.72;;;15.75;93.78
49813;BME280;35706;52.100;5.056;2023-05-07T04:15:25;101543.97;;;15.74;93.53
49813;BME280;35706;52.100;5.056;2023-05-07T04:16:25;101539.69;;;15.73;93.50
49813;BME280;35706;52.100;5.056;2023-05-07T04:17:25;101535.06;;;15.75;93.50
49813;BME280;35706;52.100;5.056;2023-05-07T04:18:26;101540.66;;;15.72;93.31
49813;BME280;35706;52.100;5.056;2023-05-07T04:19:26;101541.47;;;15.72;93.28
49813;BME280;35706;52.100;5.056;2023-05-07T04:20:26;101542.44;;;15.71;93.84
49813;BME280;35706;52.100;5.056;2023-05-07T04:21:30;101539.78;;;15.71;93.66
49813;BME280;35706;52.100;5.056;2023-05-07T04:22:30;101542.44;;;15.71;93.55
49813;BME280;35706;52.100;5.056;2023-05-07T04:23:31;101540.19;;;15.76;93.46
49813;BME280;35706;52.100;5.056;2023-05-07T04:24:32;101542.16;;;15.74;93.67
49813;BME280;35706;52.100;5.056;2023-05-07T04:25:33;101552.22;;;15.71;94.13
49813;BME280;35706;52.100;5.056;2023-05-07T04:26:33;101546.63;;;15.74;94.26
49813;BME280;35706;52.100;5.056;2023-05-07T04:27:34;101543.31;;;15.72;94.01
49813;BME280;35706;52.100;5.056;2023-05-07T04:28:36;101545.69;;;15.83;93.51
49813;BME280;35706;52.100;5.056;2023-05-07T04:29:36;101544.34;;;15.79;93.73
49813;BME280;35706;52.100;5.056;2023-05-07T04:30:37;101537.25;;;15.79;93.39
49813;BME280;35706;52.100;5.056;2023-05-07T04:31:37;101540.41;;;15.83;93.05
49813;BME280;35706;52.100;5.056;2023-05-07T04:32:38;101541.06;;;15.85;92.63
49813;BME280;35706;52.100;5.056;2023-05-07T04:33:39;101540.41;;;15.83;93.40
49813;BME280;35706;52.100;5.056;2023-05-07T04:34:39;101554.78;;;15.80;93.44
49813;BME280;35706;52.100;5.056;2023-05-07T04:35:39;101547.00;;;15.79;93.35
49813;BME280;35706;52.100;5.056;2023-05-07T04:36:40;101546.16;;;15.78;93.25
49813;BME280;35706;52.100;5.056;2023-05-07T04:37:40;101548.06;;;15.86;92.26
49813;BME280;35706;52.100;5.056;2023-05-07T04:38:41;101551.25;;;15.90;92.00
49813;BME280;35706;52.100;5.056;2023-05-07T04:39:41;101542.09;;;15.84;92.36
49813;BME280;35706;52.100;5.056;2023-05-07T04:40:42;101542.91;;;15.84;92.40
49813;BME280;35706;52.100;5.056;2023-05-07T04:41:42;101547.75;;;15.89;91.73
49813;BME280;35706;52.100;5.056;2023-05-07T04:42:42;101547.25;;;15.85;92.36
49813;BME280;35706;52.100;5.056;2023-05-07T04:43:43;101547.66;;;15.81;92.83
49813;BME280;35706;52.100;5.056;2023-05-07T04:44:44;101553.50;;;15.84;92.19
49813;BME280;35706;52.100;5.056;2023-05-07T04:45:45;101547.38;;;15.84;92.28
49813;BME280;35706;52.100;5.056;2023-05-07T04:46:45;101548.69;;;15.80;92.43
49813;BME280;35706;52.100;5.056;2023-05-07T04:47:46;101543.91;;;15.83;92.92
49813;BME280;35706;52.100;5.056;2023-05-07T04:48:46;101544.25;;;15.88;92.04
49813;BME280;35706;52.100;5.056;2023-05-07T04:49:46;101545.94;;;15.90;92.13
49813;BME280;35706;52.100;5.056;2023-05-07T04:50:47;101547.81;;;15.97;90.83
49813;BME280;35706;52.100;5.056;2023-05-07T04:51:48;101548.97;;;15.95;91.67
49813;BME280;35706;52.100;5.056;2023-05-07T04:52:48;101543.81;;;15.93;91.80
49813;BME280;35706;52.100;5.056;2023-05-07T04:53:48;101545.94;;;15.90;92.33
49813;BME280;35706;52.100;5.056;2023-05-07T04:54:49;101544.59;;;15.85;92.65
49813;BME280;35706;52.100;5.056;2023-05-07T04:55:55;101538.63;;;15.92;92.03
49813;BME280;35706;52.100;5.056;2023-05-07T04:56:56;101544.81;;;15.92;91.86
49813;BME280;35706;52.100;5.056;2023-05-07T04:57:56;101541.47;;;15.90;92.03
49813;BME280;35706;52.100;5.056;2023-05-07T04:58:56;101549.78;;;15.95;91.56
49813;BME280;35706;52.100;5.056;2023-05-07T04:59:57;101546.59;;;15.92;92.25
49813;BME280;35706;52.100;5.056;2023-05-07T05:00:58;101546.91;;;15.88;92.60
49813;BME280;35706;52.100;5.056;2023-05-07T05:01:58;101548.28;;;15.93;92.47
49813;BME280;35706;52.100;5.056;2023-05-07T05:02:59;101547.06;;;15.87;93.03
49813;BME280;35706;52.100;5.056;2023-05-07T05:03:59;101548.75;;;15.88;93.12
49813;BME280;35706;52.100;5.056;2023-05-07T05:05:01;101556.38;;;15.91;93.54
49813;BME280;35706;52.100;5.056;2023-05-07T05:06:04;101547.75;;;15.89;93.64
49813;BME280;35706;52.100;5.056;2023-05-07T05:07:04;101555.88;;;15.87;93.50
49813;BME280;35706;52.100;5.056;2023-05-07T05:08:05;101552.06;;;15.90;93.02
49813;BME280;35706;52.100;5.056;2023-05-07T05:09:06;101547.59;;;15.91;92.78
49813;BME280;35706;52.100;5.056;2023-05-07T05:10:07;101553.91;;;15.90;92.97
49813;BME280;35706;52.100;5.056;2023-05-07T05:11:07;101550.38;;;15.89;93.15
49813;BME280;35706;52.100;5.056;2023-05-07T05:12:07;101558.34;;;15.89;93.00
49813;BME280;35706;52.100;5.056;2023-05-07T05:13:08;101553.91;;;15.90;92.84
49813;BME280;35706;52.100;5.056;2023-05-07T05:14:09;101550.72;;;15.86;93.16
49813;BME280;35706;52.100;5.056;2023-05-07T05:15:11;101547.25;;;15.85;92.79
49813;BME280;35706;52.100;5.056;2023-05-07T05:16:11;101555.88;;;15.87;93.20
49813;BME280;35706;52.100;5.056;2023-05-07T05:17:12;101555.88;;;15.87;93.24
49813;BME280;35706;52.100;5.056;2023-05-07T05:18:15;101550.25;;;15.91;92.49